sensor_id;sensor_type;location;lat;lon;timestamp;pressure;altitude;pressure_sealevel;temperature;humidity
54562;BME280;69047;53.358;-1.486;2024-03-06T00:01:01;100874.97;;;5.77;74.40
54562;BME280;69047;53.358;-1.486;2024-03-06T00:03:26;100871.88;;;5.74;74.24
54562;BME280;69047;53.358;-1.486;2024-03-06T00:05:52;100872.13;;;5.66;74.41
54562;BME280;69047;53.358;-1.486;2024-03-06T00:08:17;100876.72;;;5.58;74.86
54562;BME280;69047;53.358;-1.486;2024-03-06T00:10:43;100879.13;;;5.22;74.92
54562;BME280;69047;53.358;-1.486;2024-03-06T00:13:10;100882.91;;;4.69;77.58
54562;BME280;69047;53.358;-1.486;2024-03-06T00:15:35;100877.88;;;5.18;76.07
54562;BME280;69047;53.358;-1.486;2024-03-06T00:18:01;100880.13;;;5.28;74.88
54562;BME280;69047;53.358;-1.486;2024-03-06T00:20:27;100875.97;;;5.38;74.94
54562;BME280;69047;53.358;-1.486;2024-03-06T00:22:53;100881.34;;;5.32;74.11
54562;BME280;69047;53.358;-1.486;2024-03-06T00:25:18;100880.50;;;5.38;73.85
54562;BME280;69047;53.358;-1.486;2024-03-06T00:27:44;100879.66;;;5.44;73.75
54562;BME280;69047;53.358;-1.486;2024-03-06T00:30:10;100887.59;;;5.19;73.92
54562;BME280;69047;53.358;-1.486;2024-03-06T00:32:35;100879.97;;;5.16;74.41
54562;BME280;69047;53.358;-1.486;2024-03-06T00:35:01;100896.94;;;4.44;76.85
54562;BME280;69047;53.358;-1.486;2024-03-06T00:37:26;100896.50;;;4.61;77.22
54562;BME280;69047;53.358;-1.486;2024-03-06T00:39:52;100892.56;;;4.96;75.91
54562;BME280;69047;53.358;-1.486;2024-03-06T00:42:17;100893.59;;;5.08;75.12
54562;BME280;69047;53.358;-1.486;2024-03-06T00:44:43;100889.81;;;5.29;74.68
54562;BME280;69047;53.358;-1.486;2024-03-06T00:47:08;100891.28;;;5.31;73.64
54562;BME280;69047;53.358;-1.486;2024-03-06T00:49:34;100893.38;;;5.16;74.28
54562;BME280;69047;53.358;-1.486;2024-03-06T00:51:59;100889.22;;;5.27;73.94
54562;BME280;69047;53.358;-1.486;2024-03-06T00:54:26;100893.59;;;5.15;74.53
54562;BME280;69047;53.358;-1.486;2024-03-06T00:56:53;100891.31;;;5.25;74.57
54562;BME280;69047;53.358;-1.486;2024-03-06T00:59:18;100894.63;;;5.14;74.83
54562;BME280;69047;53.358;-1.486;2024-03-06T01:01:43;100894.84;;;5.06;75.15
54562;BME280;69047;53.358;-1.486;2024-03-06T01:04:09;100886.59;;;5.14;74.85
54562;BME280;69047;53.358;-1.486;2024-03-06T01:06:36;100898.75;;;5.10;74.90
54562;BME280;69047;53.358;-1.486;2024-03-06T01:09:04;100902.06;;;5.12;75.06
54562;BME280;69047;53.358;-1.486;2024-03-06T01:11:31;100902.47;;;5.09;74.98
54562;BME280;69047;53.358;-1.486;2024-03-06T01:13:57;100902.88;;;5.06;74.78
54562;BME280;69047;53.358;-1.486;2024-03-06T01:16:23;100899.59;;;5.03;74.69
54562;BME280;69047;53.358;-1.486;2024-03-06T01:18:48;100899.19;;;5.07;74.20
54562;BME280;69047;53.358;-1.486;2024-03-06T01:21:14;100893.00;;;4.93;74.09
54562;BME280;69047;53.358;-1.486;2024-03-06T01:23:40;100897.97;;;4.76;74.97
54562;BME280;69047;53.358;-1.486;2024-03-06T01:26:06;100890.13;;;4.68;75.32
54562;BME280;69047;53.358;-1.486;2024-03-06T01:28:32;100892.41;;;4.78;75.46
54562;BME280;69047;53.358;-1.486;2024-03-06T01:30:58;100889.50;;;4.79;74.94
54562;BME280;69047;53.358;-1.486;2024-03-06T01:33:24;100902.09;;;4.79;74.97
54562;BME280;69047;53.358;-1.486;2024-03-06T01:35:49;100908.59;;;3.91;77.31
54562;BME280;69047;53.358;-1.486;2024-03-06T01:38:15;100911.34;;;4.37;77.53
54562;BME280;69047;53.358;-1.486;2024-03-06T01:40:48;100903.34;;;4.50;76.11
54562;BME280;69047;53.358;-1.486;2024-03-06T01:43:19;100907.03;;;4.56;75.72
54562;BME280;69047;53.358;-1.486;2024-03-06T01:45:45;100911.97;;;4.45;76.00
54562;BME280;69047;53.358;-1.486;2024-03-06T01:48:12;100906.41;;;4.60;75.82
54562;BME280;69047;53.358;-1.486;2024-03-06T01:50:41;100916.34;;;4.60;75.50
54562;BME280;69047;53.358;-1.486;2024-03-06T01:53:07;100907.44;;;4.53;75.49
54562;BME280;69047;53.358;-1.486;2024-03-06T01:55:33;100907.03;;;4.49;75.39
54562;BME280;69047;53.358;-1.486;2024-03-06T01:57:59;100900.88;;;4.42;75.55
54562;BME280;69047;53.358;-1.486;2024-03-06T02:00:25;100909.31;;;4.39;75.53
54562;BME280;69047;53.358;-1.486;2024-03-06T02:02:51;100917.97;;;4.47;75.69
54562;BME280;69047;53.358;-1.486;2024-03-06T02:05:17;100910.41;;;3.84;77.65
54562;BME280;69047;53.358;-1.486;2024-03-06T02:07:43;100909.47;;;4.11;77.22
54562;BME280;69047;53.358;-1.486;2024-03-06T02:10:09;100909.47;;;4.31;76.25
54562;BME280;69047;53.358;-1.486;2024-03-06T02:12:36;100907.84;;;4.43;75.63
54562;BME280;69047;53.358;-1.486;2024-03-06T02:15:01;100904.97;;;4.44;74.90
54562;BME280;69047;53.358;-1.486;2024-03-06T02:17:29;100909.50;;;4.37;74.90
54562;BME280;69047;53.358;-1.486;2024-03-06T02:19:55;100917.34;;;4.39;74.85
54562;BME280;69047;53.358;-1.486;2024-03-06T02:22:21;100910.94;;;4.27;75.13
54562;BME280;69047;53.358;-1.486;2024-03-06T02:24:48;100909.31;;;4.39;74.89
54562;BME280;69047;53.358;-1.486;2024-03-06T02:27:14;100912.41;;;4.36;74.41
54562;BME280;69047;53.358;-1.486;2024-03-06T02:29:41;100910.53;;;4.23;74.77
54562;BME280;69047;53.358;-1.486;2024-03-06T02:32:07;100915.25;;;4.15;75.09
54562;BME280;69047;53.358;-1.486;2024-03-06T02:34:36;100910.91;;;4.20;75.19
54562;BME280;69047;53.358;-1.486;2024-03-06T02:37:02;100910.78;;;3.74;75.88
54562;BME280;69047;53.358;-1.486;2024-03-06T02:39:28;100907.44;;;3.66;78.33
54562;BME280;69047;53.358;-1.486;2024-03-06T02:41:53;100899.31;;;3.94;76.54
54562;BME280;69047;53.358;-1.486;2024-03-06T02:44:19;100901.16;;;3.93;75.77
54562;BME280;69047;53.358;-1.486;2024-03-06T02:46:48;100900.34;;;3.92;76.22
54562;BME280;69047;53.358;-1.486;2024-03-06T02:49:15;100905.56;;;3.60;76.51
54562;BME280;69047;53.358;-1.486;2024-03-06T02:51:40;100909.78;;;3.88;76.19
54562;BME280;69047;53.358;-1.486;2024-03-06T02:54:09;100898.09;;;3.96;75.42
54562;BME280;69047;53.358;-1.486;2024-03-06T02:56:38;100892.09;;;3.87;75.66
54562;BME280;69047;53.358;-1.486;2024-03-06T02:59:04;100898.50;;;4.00;74.84
54562;BME280;69047;53.358;-1.486;2024-03-06T03:01:29;100895.38;;;3.89;74.98
54562;BME280;69047;53.358;-1.486;2024-03-06T03:03:55;100890.56;;;3.65;75.75
54562;BME280;69047;53.358;-1.486;2024-03-06T03:06:21;100888.28;;;3.62;75.87
54562;BME280;69047;53.358;-1.486;2024-03-06T03:08:49;100892.09;;;3.06;76.95
54562;BME280;69047;53.358;-1.486;2024-03-06T03:11:14;100898.16;;;3.21;77.76
54562;BME280;69047;53.358;-1.486;2024-03-06T03:13:41;100899.66;;;3.30;77.34
54562;BME280;69047;53.358;-1.486;2024-03-06T03:16:06;100901.47;;;3.23;77.08
54562;BME280;69047;53.358;-1.486;2024-03-06T03:18:32;100907.69;;;3.30;77.04
54562;BME280;69047;53.358;-1.486;2024-03-06T03:20:57;100904.91;;;3.51;75.93
54562;BME280;69047;53.358;-1.486;2024-03-06T03:23:23;100909.88;;;3.54;75.41
54562;BME280;69047;53.358;-1.486;2024-03-06T03:25:48;100911.53;;;3.62;75.53
54562;BME280;69047;53.358;-1.486;2024-03-06T03:28:14;100914.22;;;3.62;75.36
54562;BME280;69047;53.358;-1.486;2024-03-06T03:30:42;100909.94;;;3.67;74.96
54562;BME280;69047;53.358;-1.486;2024-03-06T03:33:09;100905.84;;;3.78;74.98
54562;BME280;69047;53.358;-1.486;2024-03-06T03:35:34;100894.94;;;3.86;74.75
54562;BME280;69047;53.358;-1.486;2024-03-06T03:37:59;100900.72;;;3.89;74.95
54562;BME280;69047;53.358;-1.486;2024-03-06T03:40:25;100906.94;;;3.97;74.41
54562;BME280;69047;53.358;-1.486;2024-03-06T03:42:50;100901.19;;;4.06;74.61
54562;BME280;69047;53.358;-1.486;2024-03-06T03:45:23;100901.84;;;4.15;74.31
54562;BME280;69047;53.358;-1.486;2024-03-06T03:47:52;100904.91;;;4.18;74.25
54562;BME280;69047;53.358;-1.486;2024-03-06T03:50:18;100897.94;;;4.30;74.69
54562;BME280;69047;53.358;-1.486;2024-03-06T03:52:43;100894.22;;;4.31;74.95
54562;BME280;69047;53.358;-1.486;2024-03-06T03:55:09;100901.47;;;4.37;74.49
54562;BME280;69047;53.358;-1.486;2024-03-06T03:57:34;100899.59;;;4.51;74.96
54562;BME280;69047;53.358;-1.486;2024-03-06T03:59:59;100896.13;;;4.51;74.46
54562;BME280;69047;53.358;-1.486;2024-03-06T04:02:25;100895.28;;;4.43;74.92
54562;BME280;69047;53.358;-1.486;2024-03-06T04:04:50;100907.03;;;4.36;75.31
54562;BME280;69047;53.358;-1.486;2024-03-06T04:07:16;100899.41;;;4.33;75.05
54562;BME280;69047;53.358;-1.486;2024-03-06T04:09:44;100896.50;;;4.28;74.43
54562;BME280;69047;53.358;-1.486;2024-03-06T04:12:09;100904.47;;;4.02;74.67
54562;BME280;69047;53.358;-1.486;2024-03-06T04:14:34;100904.03;;;3.91;75.52
54562;BME280;69047;53.358;-1.486;2024-03-06T04:17:00;100909.91;;;3.61;76.65
54562;BME280;69047;53.358;-1.486;2024-03-06T04:19:25;100915.72;;;3.30;77.73
54562;BME280;69047;53.358;-1.486;2024-03-06T04:21:51;100911.53;;;3.62;76.70
54562;BME280;69047;53.358;-1.486;2024-03-06T04:24:16;100920.34;;;3.97;75.25
54562;BME280;69047;53.358;-1.486;2024-03-06T04:26:41;100917.13;;;4.21;74.78
54562;BME280;69047;53.358;-1.486;2024-03-06T04:29:07;100921.03;;;4.31;74.23
54562;BME280;69047;53.358;-1.486;2024-03-06T04:31:32;100921.06;;;4.38;74.33
54562;BME280;69047;53.358;-1.486;2024-03-06T04:33:58;100924.56;;;4.52;74.09
54562;BME280;69047;53.358;-1.486;2024-03-06T04:36:23;100923.34;;;4.47;73.93
54562;BME280;69047;53.358;-1.486;2024-03-06T04:38:48;100928.91;;;4.46;74.67
54562;BME280;69047;53.358;-1.486;2024-03-06T04:41:14;100923.31;;;4.41;74.16
54562;BME280;69047;53.358;-1.486;2024-03-06T04:43:39;100927.69;;;4.62;74.52
54562;BME280;69047;53.358;-1.486;2024-03-06T04:46:04;100923.75;;;4.64;74.72
54562;BME280;69047;53.358;-1.486;2024-03-06T04:48:30;100922.53;;;4.80;74.29
54562;BME280;69047;53.358;-1.486;2024-03-06T04:50:56;100924.16;;;4.94;74.45
54562;BME280;69047;53.358;-1.486;2024-03-06T04:53:21;100925.59;;;5.03;74.08
54562;BME280;69047;53.358;-1.486;2024-03-06T04:55:46;100931.41;;;4.80;73.91
54562;BME280;69047;53.358;-1.486;2024-03-06T04:58:12;100939.03;;;4.96;74.71
54562;BME280;69047;53.358;-1.486;2024-03-06T05:00:38;100949.75;;;4.70;74.38
54562;BME280;69047;53.358;-1.486;2024-03-06T05:03:03;100950.78;;;4.76;74.76
54562;BME280;69047;53.358;-1.486;2024-03-06T05:05:29;100951.00;;;4.87;75.06
54562;BME280;69047;53.358;-1.486;2024-03-06T05:07:54;100947.06;;;4.96;74.15
54562;BME280;69047;53.358;-1.486;2024-03-06T05:10:20;100943.78;;;5.01;73.60
54562;BME280;69047;53.358;-1.486;2024-03-06T05:12:46;100953.69;;;4.94;74.17
54562;BME280;69047;53.358;-1.486;2024-03-06T05:15:12;100947.91;;;5.10;73.60
54562;BME280;69047;53.358;-1.486;2024-03-06T05:17:38;100947.47;;;4.93;73.82
54562;BME280;69047;53.358;-1.486;2024-03-06T05:20:03;100949.75;;;5.16;73.49
54562;BME280;69047;53.358;-1.486;2024-03-06T05:22:29;100951.19;;;5.25;72.82
54562;BME280;69047;53.358;-1.486;2024-03-06T05:24:54;100946.19;;;5.29;73.18
54562;BME280;69047;53.358;-1.486;2024-03-06T05:27:21;100949.53;;;5.31;73.18
54562;BME280;69047;53.358;-1.486;2024-03-06T05:29:46;100953.28;;;5.17;73.52
54562;BME280;69047;53.358;-1.486;2024-03-06T05:32:11;100959.00;;;4.41;76.58
54562;BME280;69047;53.358;-1.486;2024-03-06T05:34:37;100970.59;;;4.88;75.78
54562;BME280;69047;53.358;-1.486;2024-03-06T05:37:02;100958.00;;;5.21;74.20
54562;BME280;69047;53.358;-1.486;2024-03-06T05:39:30;100963.56;;;5.20;74.58
54562;BME280;69047;53.358;-1.486;2024-03-06T05:42:02;100956.34;;;5.33;73.88
54562;BME280;69047;53.358;-1.486;2024-03-06T05:44:29;100963.53;;;5.52;73.31
54562;BME280;69047;53.358;-1.486;2024-03-06T05:46:55;100960.84;;;5.52;73.42
54562;BME280;69047;53.358;-1.486;2024-03-06T05:49:20;100963.09;;;5.55;73.52
54562;BME280;69047;53.358;-1.486;2024-03-06T05:51:46;100966.41;;;5.57;73.11
54562;BME280;69047;53.358;-1.486;2024-03-06T05:54:11;100966.78;;;5.68;73.05
54562;BME280;69047;53.358;-1.486;2024-03-06T05:56:37;100977.94;;;5.71;72.82
54562;BME280;69047;53.358;-1.486;2024-03-06T05:59:04;100979.22;;;5.49;73.77
54562;BME280;69047;53.358;-1.486;2024-03-06T06:01:32;100980.44;;;5.53;74.15
54562;BME280;69047;53.358;-1.486;2024-03-06T06:03:58;100989.34;;;5.53;74.38
54562;BME280;69047;53.358;-1.486;2024-03-06T06:06:25;100982.09;;;5.61;74.16
54562;BME280;69047;53.358;-1.486;2024-03-06T06:08:51;100981.28;;;5.47;74.33
54562;BME280;69047;53.358;-1.486;2024-03-06T06:11:17;100995.38;;;5.16;74.92
54562;BME280;69047;53.358;-1.486;2024-03-06T06:13:42;100992.25;;;5.26;75.72
54562;BME280;69047;53.358;-1.486;2024-03-06T06:16:08;100993.25;;;5.57;74.23
54562;BME280;69047;53.358;-1.486;2024-03-06T06:18:33;100995.47;;;5.74;73.47
54562;BME280;69047;53.358;-1.486;2024-03-06T06:20:59;100994.03;;;5.91;73.27
54562;BME280;69047;53.358;-1.486;2024-03-06T06:23:25;100997.31;;;5.93;73.35
54562;BME280;69047;53.358;-1.486;2024-03-06T06:25:51;100995.47;;;5.80;73.60
54562;BME280;69047;53.358;-1.486;2024-03-06T06:28:16;100996.91;;;5.89;73.89
54562;BME280;69047;53.358;-1.486;2024-03-06T06:30:42;100992.34;;;5.96;73.89
54562;BME280;69047;53.358;-1.486;2024-03-06T06:33:07;100995.53;;;5.41;75.08
54562;BME280;69047;53.358;-1.486;2024-03-06T06:35:33;100993.03;;;5.72;74.80
54562;BME280;69047;53.358;-1.486;2024-03-06T06:38:00;100991.53;;;5.89;74.04
54562;BME280;69047;53.358;-1.486;2024-03-06T06:40:25;100999.22;;;5.79;73.81
54562;BME280;69047;53.358;-1.486;2024-03-06T06:42:52;101003.53;;;5.74;74.06
54562;BME280;69047;53.358;-1.486;2024-03-06T06:45:26;100994.03;;;5.71;74.08
54562;BME280;69047;53.358;-1.486;2024-03-06T06:47:53;101007.13;;;4.63;78.09
54562;BME280;69047;53.358;-1.486;2024-03-06T06:50:19;101001.06;;;4.41;80.03
54562;BME280;69047;53.358;-1.486;2024-03-06T06:52:48;100999.94;;;4.89;78.82
54562;BME280;69047;53.358;-1.486;2024-03-06T06:55:14;101010.66;;;5.16;77.72
54562;BME280;69047;53.358;-1.486;2024-03-06T06:57:39;101012.91;;;5.38;76.56
54562;BME280;69047;53.358;-1.486;2024-03-06T07:00:05;101015.59;;;5.51;75.90
54562;BME280;69047;53.358;-1.486;2024-03-06T07:02:39;101012.91;;;5.51;75.46
54562;BME280;69047;53.358;-1.486;2024-03-06T07:05:07;101020.53;;;5.35;75.98
54562;BME280;69047;53.358;-1.486;2024-03-06T07:07:33;101027.34;;;5.50;75.52
54562;BME280;69047;53.358;-1.486;2024-03-06T07:09:59;101024.91;;;5.03;76.59
54562;BME280;69047;53.358;-1.486;2024-03-06T07:12:24;101035.22;;;5.13;77.40
54562;BME280;69047;53.358;-1.486;2024-03-06T07:14:50;101021.38;;;5.42;76.26
54562;BME280;69047;53.358;-1.486;2024-03-06T07:17:15;101030.66;;;5.59;75.41
54562;BME280;69047;53.358;-1.486;2024-03-06T07:19:40;101032.50;;;5.72;74.80
54562;BME280;69047;53.358;-1.486;2024-03-06T07:22:06;101038.31;;;5.42;75.24
54562;BME280;69047;53.358;-1.486;2024-03-06T07:24:31;101044.13;;;5.13;77.38
54562;BME280;69047;53.358;-1.486;2024-03-06T07:26:57;101049.03;;;4.90;78.32
54562;BME280;69047;53.358;-1.486;2024-03-06T07:29:22;101052.94;;;4.87;78.89
54562;BME280;69047;53.358;-1.486;2024-03-06T07:31:48;101048.03;;;5.04;78.98
54562;BME280;69047;53.358;-1.486;2024-03-06T07:34:19;101052.78;;;5.48;78.32
54562;BME280;69047;53.358;-1.486;2024-03-06T07:36:47;101047.16;;;5.82;76.99
54562;BME280;69047;53.358;-1.486;2024-03-06T07:39:14;101043.59;;;6.08;75.64
54562;BME280;69047;53.358;-1.486;2024-03-06T07:41:41;101041.66;;;6.22;74.52
54562;BME280;69047;53.358;-1.486;2024-03-06T07:44:06;101041.81;;;6.33;74.19
54562;BME280;69047;53.358;-1.486;2024-03-06T07:46:32;101043.84;;;6.44;73.96
54562;BME280;69047;53.358;-1.486;2024-03-06T07:48:59;101047.97;;;6.47;73.63
54562;BME280;69047;53.358;-1.486;2024-03-06T07:51:24;101044.47;;;6.46;73.81
54562;BME280;69047;53.358;-1.486;2024-03-06T07:53:49;101050.50;;;6.42;73.62
54562;BME280;69047;53.358;-1.486;2024-03-06T07:56:18;101054.97;;;6.54;73.72
54562;BME280;69047;53.358;-1.486;2024-03-06T07:58:43;101055.66;;;6.43;74.03
54562;BME280;69047;53.358;-1.486;2024-03-06T08:01:09;101054.50;;;6.64;74.10
54562;BME280;69047;53.358;-1.486;2024-03-06T08:03:34;101058.25;;;6.63;74.14
54562;BME280;69047;53.358;-1.486;2024-03-06T08:06:00;101055.16;;;6.59;74.61
54562;BME280;69047;53.358;-1.486;2024-03-06T08:08:25;101057.78;;;6.66;74.71
54562;BME280;69047;53.358;-1.486;2024-03-06T08:10:51;101059.63;;;6.72;74.70
54562;BME280;69047;53.358;-1.486;2024-03-06T08:13:17;101060.25;;;6.74;74.93
54562;BME280;69047;53.358;-1.486;2024-03-06T08:15:44;101060.44;;;6.79;75.38
54562;BME280;69047;53.358;-1.486;2024-03-06T08:18:09;101065.78;;;6.86;75.39
54562;BME280;69047;53.358;-1.486;2024-03-06T08:20:35;101065.47;;;7.00;75.08
54562;BME280;69047;53.358;-1.486;2024-03-06T08:23:01;101069.91;;;6.88;76.08
54562;BME280;69047;53.358;-1.486;2024-03-06T08:25:26;101067.72;;;7.03;75.95
54562;BME280;69047;53.358;-1.486;2024-03-06T08:27:52;101066.56;;;6.93;76.44
54562;BME280;69047;53.358;-1.486;2024-03-06T08:30:17;101069.06;;;7.19;75.76
54562;BME280;69047;53.358;-1.486;2024-03-06T08:32:43;101071.22;;;7.10;75.97
54562;BME280;69047;53.358;-1.486;2024-03-06T08:35:10;101068.44;;;7.17;75.57
54562;BME280;69047;53.358;-1.486;2024-03-06T08:37:46;101067.22;;;7.19;76.02
54562;BME280;69047;53.358;-1.486;2024-03-06T08:40:11;101066.03;;;7.09;76.64
54562;BME280;69047;53.358;-1.486;2024-03-06T08:42:45;101074.06;;;7.15;76.27
54562;BME280;69047;53.358;-1.486;2024-03-06T08:45:13;101071.34;;;6.84;77.60
54562;BME280;69047;53.358;-1.486;2024-03-06T08:47:45;101074.88;;;6.85;77.79
54562;BME280;69047;53.358;-1.486;2024-03-06T08:50:11;101069.59;;;7.03;76.94
54562;BME280;69047;53.358;-1.486;2024-03-06T08:52:38;101074.13;;;7.02;76.94
54562;BME280;69047;53.358;-1.486;2024-03-06T08:55:04;101073.72;;;7.05;76.26
54562;BME280;69047;53.358;-1.486;2024-03-06T08:57:31;101068.25;;;7.18;76.32
54562;BME280;69047;53.358;-1.486;2024-03-06T08:59:57;101079.84;;;7.19;76.09
54562;BME280;69047;53.358;-1.486;2024-03-06T09:02:23;101075.13;;;7.39;76.08
54562;BME280;69047;53.358;-1.486;2024-03-06T09:04:48;101073.91;;;7.35;75.33
54562;BME280;69047;53.358;-1.486;2024-03-06T09:07:17;101078.78;;;7.20;76.22
54562;BME280;69047;53.358;-1.486;2024-03-06T09:09:42;101072.69;;;7.06;75.94
54562;BME280;69047;53.358;-1.486;2024-03-06T09:12:09;101080.25;;;7.22;74.80
54562;BME280;69047;53.358;-1.486;2024-03-06T09:14:39;101077.72;;;7.28;74.41
54562;BME280;69047;53.358;-1.486;2024-03-06T09:17:07;101084.25;;;6.76;75.82
54562;BME280;69047;53.358;-1.486;2024-03-06T09:19:35;101084.09;;;6.64;76.87
54562;BME280;69047;53.358;-1.486;2024-03-06T09:22:00;101078.31;;;7.30;75.21
54562;BME280;69047;53.358;-1.486;2024-03-06T09:24:28;101082.81;;;7.36;74.35
54562;BME280;69047;53.358;-1.486;2024-03-06T09:26:54;101087.25;;;7.23;74.70
54562;BME280;69047;53.358;-1.486;2024-03-06T09:29:20;101089.78;;;7.18;75.45
54562;BME280;69047;53.358;-1.486;2024-03-06T09:31:46;101079.84;;;7.68;74.17
54562;BME280;69047;53.358;-1.486;2024-03-06T09:34:13;101094.78;;;7.15;74.77
54562;BME280;69047;53.358;-1.486;2024-03-06T09:36:46;101091.88;;;7.41;74.37
54562;BME280;69047;53.358;-1.486;2024-03-06T09:39:13;101099.13;;;7.41;74.80
54562;BME280;69047;53.358;-1.486;2024-03-06T09:41:45;101090.22;;;7.90;73.53
54562;BME280;69047;53.358;-1.486;2024-03-06T09:44:11;101091.34;;;7.82;73.19
54562;BME280;69047;53.358;-1.486;2024-03-06T09:46:42;101094.81;;;7.64;73.63
54562;BME280;69047;53.358;-1.486;2024-03-06T09:49:08;101092.91;;;7.65;74.12
54562;BME280;69047;53.358;-1.486;2024-03-06T09:51:38;101099.13;;;7.90;73.70
54562;BME280;69047;53.358;-1.486;2024-03-06T09:54:15;101101.38;;;7.93;72.96
54562;BME280;69047;53.358;-1.486;2024-03-06T09:56:46;101100.84;;;7.35;74.22
54562;BME280;69047;53.358;-1.486;2024-03-06T09:59:12;101107.16;;;7.22;75.13
54562;BME280;69047;53.358;-1.486;2024-03-06T10:01:58;101105.97;;;7.68;74.41
54562;BME280;69047;53.358;-1.486;2024-03-06T10:04:28;101104.38;;;8.21;72.43
54562;BME280;69047;53.358;-1.486;2024-03-06T10:06:58;101101.97;;;8.38;72.65
54562;BME280;69047;53.358;-1.486;2024-03-06T10:09:24;101106.50;;;8.19;71.96
54562;BME280;69047;53.358;-1.486;2024-03-06T10:11:50;101112.44;;;8.28;71.93
54562;BME280;69047;53.358;-1.486;2024-03-06T10:14:20;101106.97;;;8.34;71.72
54562;BME280;69047;53.358;-1.486;2024-03-06T10:16:52;101106.09;;;7.55;72.87
54562;BME280;69047;53.358;-1.486;2024-03-06T10:19:18;101108.50;;;7.88;72.54
54562;BME280;69047;53.358;-1.486;2024-03-06T10:21:46;101106.19;;;7.91;71.88
54562;BME280;69047;53.358;-1.486;2024-03-06T10:24:19;101106.44;;;7.83;72.23
54562;BME280;69047;53.358;-1.486;2024-03-06T10:26:46;101112.59;;;7.90;71.88
54562;BME280;69047;53.358;-1.486;2024-03-06T10:29:15;101103.13;;;8.24;71.30
54562;BME280;69047;53.358;-1.486;2024-03-06T10:31:40;101106.84;;;8.05;71.02
54562;BME280;69047;53.358;-1.486;2024-03-06T10:34:08;101107.31;;;8.02;70.87
54562;BME280;69047;53.358;-1.486;2024-03-06T10:36:35;101107.69;;;8.05;69.47
54562;BME280;69047;53.358;-1.486;2024-03-06T10:39:03;101109.66;;;8.53;69.85
54562;BME280;69047;53.358;-1.486;2024-03-06T10:41:32;101115.31;;;8.33;71.53
54562;BME280;69047;53.358;-1.486;2024-03-06T10:43:59;101120.66;;;8.69;69.92
54562;BME280;69047;53.358;-1.486;2024-03-06T10:46:27;101119.69;;;8.64;70.37
54562;BME280;69047;53.358;-1.486;2024-03-06T10:48:55;101126.44;;;9.03;70.03
54562;BME280;69047;53.358;-1.486;2024-03-06T10:51:24;101126.88;;;8.70;69.70
54562;BME280;69047;53.358;-1.486;2024-03-06T10:53:51;101131.41;;;9.06;68.89
54562;BME280;69047;53.358;-1.486;2024-03-06T10:56:18;101132.25;;;8.88;68.04
54562;BME280;69047;53.358;-1.486;2024-03-06T10:58:47;101128.97;;;8.86;66.99
54562;BME280;69047;53.358;-1.486;2024-03-06T11:01:17;101130.94;;;8.61;68.82
54562;BME280;69047;53.358;-1.486;2024-03-06T11:03:44;101125.06;;;8.82;68.53
54562;BME280;69047;53.358;-1.486;2024-03-06T11:06:10;101131.13;;;8.48;68.69
54562;BME280;69047;53.358;-1.486;2024-03-06T11:08:40;101128.84;;;8.81;67.82
54562;BME280;69047;53.358;-1.486;2024-03-06T11:11:24;101129.69;;;8.93;66.66
54562;BME280;69047;53.358;-1.486;2024-03-06T11:13:54;101134.47;;;9.09;66.15
54562;BME280;69047;53.358;-1.486;2024-03-06T11:16:27;101131.22;;;8.89;67.16
54562;BME280;69047;53.358;-1.486;2024-03-06T11:19:04;101142.13;;;9.12;67.20
54562;BME280;69047;53.358;-1.486;2024-03-06T11:21:31;101136.66;;;9.30;67.38
54562;BME280;69047;53.358;-1.486;2024-03-06T11:24:17;101139.16;;;9.43;66.51
54562;BME280;69047;53.358;-1.486;2024-03-06T11:26:52;101133.94;;;8.71;68.35
54562;BME280;69047;53.358;-1.486;2024-03-06T11:29:21;101125.78;;;9.07;67.63
54562;BME280;69047;53.358;-1.486;2024-03-06T11:32:16;101134.28;;;8.93;68.58
54562;BME280;69047;53.358;-1.486;2024-03-06T11:34:42;101130.75;;;9.22;68.83
54562;BME280;69047;53.358;-1.486;2024-03-06T11:37:07;101132.97;;;9.13;67.37
54562;BME280;69047;53.358;-1.486;2024-03-06T11:39:37;101138.03;;;9.21;67.28
54562;BME280;69047;53.358;-1.486;2024-03-06T11:42:04;101133.50;;;9.04;67.93
54562;BME280;69047;53.358;-1.486;2024-03-06T11:44:31;101130.81;;;9.45;66.85
54562;BME280;69047;53.358;-1.486;2024-03-06T11:49:25;101128.75;;;9.70;65.04
54562;BME280;69047;53.358;-1.486;2024-03-06T11:51:52;101131.47;;;8.69;67.33
54562;BME280;69047;53.358;-1.486;2024-03-06T11:54:26;101137.25;;;9.03;67.63
54562;BME280;69047;53.358;-1.486;2024-03-06T11:56:58;101136.31;;;8.79;66.88
54562;BME280;69047;53.358;-1.486;2024-03-06T11:59:28;101133.38;;;8.99;66.93
54562;BME280;69047;53.358;-1.486;2024-03-06T12:01:56;101136.41;;;8.72;68.16
54562;BME280;69047;53.358;-1.486;2024-03-06T12:04:22;101133.59;;;8.97;67.34
54562;BME280;69047;53.358;-1.486;2024-03-06T12:06:49;101134.06;;;8.94;68.28
54562;BME280;69047;53.358;-1.486;2024-03-06T12:09:15;101137.50;;;9.01;66.63
54562;BME280;69047;53.358;-1.486;2024-03-06T12:11:41;101135.94;;;9.35;64.82
54562;BME280;69047;53.358;-1.486;2024-03-06T12:14:13;101131.81;;;9.21;65.50
54562;BME280;69047;53.358;-1.486;2024-03-06T12:16:42;101139.50;;;9.47;65.31
54562;BME280;69047;53.358;-1.486;2024-03-06T12:19:07;101136.50;;;9.55;64.72
54562;BME280;69047;53.358;-1.486;2024-03-06T12:21:34;101144.06;;;9.88;62.78
54562;BME280;69047;53.358;-1.486;2024-03-06T12:24:04;101145.16;;;9.45;64.30
54562;BME280;69047;53.358;-1.486;2024-03-06T12:26:30;101134.75;;;9.72;63.83
54562;BME280;69047;53.358;-1.486;2024-03-06T12:29:09;101133.13;;;9.30;65.39
54562;BME280;69047;53.358;-1.486;2024-03-06T12:31:41;101132.50;;;9.81;63.93
54562;BME280;69047;53.358;-1.486;2024-03-06T12:34:13;101132.84;;;9.61;63.09
54562;BME280;69047;53.358;-1.486;2024-03-06T12:36:42;101131.09;;;9.67;63.89
54562;BME280;69047;53.358;-1.486;2024-03-06T12:39:08;101131.97;;;10.14;63.47
54562;BME280;69047;53.358;-1.486;2024-03-06T12:41:39;101120.84;;;10.50;61.93
54562;BME280;69047;53.358;-1.486;2024-03-06T12:44:05;101121.53;;;10.57;60.44
54562;BME280;69047;53.358;-1.486;2024-03-06T12:46:32;101119.53;;;10.52;61.23
54562;BME280;69047;53.358;-1.486;2024-03-06T12:48:57;101132.66;;;10.09;61.50
54562;BME280;69047;53.358;-1.486;2024-03-06T12:51:22;101125.84;;;10.30;62.90